createdAt,value
2023-05-03T00:02:12.266Z,9.65
2023-05-03T00:04:41.488Z,9.65
2023-05-03T00:07:09.363Z,9.62
2023-05-03T00:09:37.255Z,9.65
2023-05-03T00:12:06.062Z,9.54
2023-05-03T00:14:33.893Z,9.53
2023-05-03T00:17:01.785Z,9.55
2023-05-03T00:19:33.529Z,9.56
2023-05-03T00:22:01.564Z,9.55
2023-05-03T00:24:29.463Z,9.50
2023-05-03T00:26:57.308Z,9.49
2023-05-03T00:29:25.955Z,9.44
2023-05-03T00:31:53.824Z,9.47
2023-05-03T00:34:22.423Z,9.46
2023-05-03T00:36:52.225Z,9.42
2023-05-03T00:39:20.088Z,9.35
2023-05-03T00:41:47.910Z,9.39
2023-05-03T00:44:15.863Z,9.31
2023-05-03T00:46:43.886Z,9.32
2023-05-03T00:49:12.215Z,9.27
2023-05-03T00:51:42.008Z,9.27
2023-05-03T00:54:12.351Z,9.23
2023-05-03T00:56:51.116Z,9.15
2023-05-03T00:59:19.861Z,9.05
2023-05-03T01:01:50.048Z,9.08
2023-05-03T01:04:19.334Z,9.07
2023-05-03T01:06:56.806Z,9.06
2023-05-03T01:09:34.040Z,9.01
2023-05-03T01:12:14.040Z,8.96
2023-05-03T01:14:50.946Z,8.97
2023-05-03T01:17:25.484Z,8.91
2023-05-03T01:19:58.094Z,8.90
2023-05-03T01:22:33.271Z,8.87
2023-05-03T01:25:09.234Z,8.81
2023-05-03T01:27:37.601Z,8.80
2023-05-03T01:30:07.616Z,8.80
2023-05-03T01:32:46.772Z,8.73
2023-05-03T01:35:22.037Z,8.76
2023-05-03T01:37:51.429Z,8.66
2023-05-03T01:40:23.616Z,8.67
2023-05-03T01:42:52.397Z,8.62
2023-05-03T01:45:20.480Z,8.62
2023-05-03T01:47:48.426Z,8.59
2023-05-03T01:50:16.584Z,8.56
2023-05-03T01:52:45.042Z,8.52
2023-05-03T01:55:13.315Z,8.53
2023-05-03T01:57:42.718Z,8.44
2023-05-03T02:00:11.901Z,8.38
2023-05-03T02:02:42.861Z,8.36
2023-05-03T02:05:11.461Z,8.35
2023-05-03T02:07:39.319Z,8.34
2023-05-03T02:10:08.454Z,8.32
2023-05-03T02:12:36.376Z,8.27
2023-05-03T02:15:06.739Z,8.24
2023-05-03T02:17:35.074Z,8.22
2023-05-03T02:20:05.765Z,8.20
2023-05-03T02:22:34.293Z,8.13
2023-05-03T02:25:02.314Z,8.10
2023-05-03T02:27:30.350Z,8.05
2023-05-03T02:29:58.213Z,8.00
2023-05-03T02:32:28.466Z,7.94
2023-05-03T02:34:56.391Z,7.89
2023-05-03T02:37:25.894Z,7.84
2023-05-03T02:39:54.274Z,7.81
2023-05-03T02:42:22.442Z,7.77
2023-05-03T02:44:50.612Z,7.75
2023-05-03T02:47:18.501Z,7.72
2023-05-03T02:49:48.296Z,7.73
2023-05-03T02:52:17.252Z,7.70
2023-05-03T02:54:47.006Z,7.58
2023-05-03T02:57:15.101Z,7.54
2023-05-03T02:59:43.444Z,7.56
2023-05-03T03:02:11.569Z,7.54
2023-05-03T03:04:39.484Z,7.51
2023-05-03T03:07:08.860Z,7.47
2023-05-03T03:09:36.914Z,7.43
2023-05-03T03:12:05.036Z,7.41
2023-05-03T03:14:34.285Z,7.37
2023-05-03T03:17:03.374Z,7.30
2023-05-03T03:19:31.309Z,7.23
2023-05-03T03:21:59.217Z,7.22
2023-05-03T03:24:28.623Z,7.18
2023-05-03T03:26:56.757Z,7.16
2023-05-03T03:29:25.933Z,7.13
2023-05-03T03:31:53.876Z,7.06
2023-05-03T03:34:21.718Z,7.06
2023-05-03T03:36:49.593Z,7.01
2023-05-03T03:39:18.202Z,6.92
2023-05-03T03:41:48.927Z,6.91
2023-05-03T03:44:16.769Z,6.98
2023-05-03T03:46:45.409Z,6.97
2023-05-03T03:49:13.507Z,6.98
2023-05-03T03:51:41.829Z,6.98
2023-05-03T03:54:09.835Z,6.94
2023-05-03T03:56:42.338Z,6.98
2023-05-03T03:59:12.253Z,7.04
2023-05-03T04:01:40.436Z,7.11
2023-05-03T04:04:09.811Z,7.12
2023-05-03T04:06:37.899Z,7.10
2023-05-03T04:09:10.449Z,7.11
2023-05-03T04:11:38.879Z,7.10
2023-05-03T04:14:08.150Z,7.16
2023-05-03T04:16:37.522Z,7.15
2023-05-03T04:19:07.298Z,7.19
2023-05-03T04:21:38.752Z,7.22
2023-05-03T04:24:09.149Z,7.27
2023-05-03T04:26:37.660Z,7.28
2023-05-03T04:29:12.844Z,7.27
2023-05-03T04:31:43.844Z,7.29
2023-05-03T04:34:14.948Z,7.30
2023-05-03T04:36:46.530Z,7.34
2023-05-03T04:39:15.701Z,7.35
2023-05-03T04:41:46.078Z,7.40
2023-05-03T04:44:14.560Z,7.36
2023-05-03T04:46:46.790Z,7.31
2023-05-03T04:49:17.747Z,7.37
2023-05-03T04:51:45.763Z,7.41
2023-05-03T04:54:14.041Z,7.45
2023-05-03T04:56:42.198Z,7.45
2023-05-03T04:59:15.919Z,7.39
2023-05-03T05:01:44.207Z,7.44
2023-05-03T05:04:13.574Z,7.52
2023-05-03T05:06:46.487Z,7.55
2023-05-03T05:09:25.068Z,7.63
2023-05-03T05:11:57.174Z,7.61
2023-05-03T05:14:28.471Z,7.56
2023-05-03T05:16:57.143Z,7.60
2023-05-03T05:19:26.457Z,7.74
2023-05-03T05:21:54.618Z,7.76
2023-05-03T05:24:26.914Z,7.74
2023-05-03T05:26:54.945Z,7.76
2023-05-03T05:29:23.047Z,7.87
2023-05-03T05:31:51.819Z,7.93
2023-05-03T05:34:19.924Z,7.92
2023-05-03T05:36:50.568Z,7.98
2023-05-03T05:39:18.646Z,8.02
2023-05-03T05:41:46.459Z,8.06
2023-05-03T05:44:14.373Z,8.15
2023-05-03T05:46:43.507Z,8.14
2023-05-03T05:49:12.166Z,8.20
2023-05-03T05:51:41.444Z,8.26
2023-05-03T05:54:11.271Z,8.27
2023-05-03T05:56:39.986Z,8.34
2023-05-03T05:59:08.336Z,8.37
2023-05-03T06:01:36.600Z,8.46
2023-05-03T06:04:05.802Z,8.51
2023-05-03T06:06:33.781Z,8.58
2023-05-03T06:09:09.769Z,8.61
2023-05-03T06:11:46.662Z,8.67
2023-05-03T06:14:15.298Z,8.73
2023-05-03T06:16:43.241Z,8.75
2023-05-03T06:19:11.130Z,8.73
2023-05-03T06:21:38.977Z,8.85
2023-05-03T06:24:07.477Z,8.92
2023-05-03T06:26:35.572Z,8.98
2023-05-03T06:29:05.169Z,8.99
2023-05-03T06:31:33.076Z,9.09
2023-05-03T06:34:01.132Z,9.06
2023-05-03T06:36:30.362Z,9.15
2023-05-03T06:38:58.505Z,9.21
2023-05-03T06:41:26.700Z,9.35
2023-05-03T06:43:54.668Z,9.29
2023-05-03T06:46:26.145Z,9.33
2023-05-03T06:48:56.213Z,9.29
2023-05-03T06:51:27.988Z,9.33
2023-05-03T06:53:56.137Z,9.39
2023-05-03T06:56:24.380Z,9.47
2023-05-03T06:58:52.219Z,9.42
2023-05-03T07:01:20.784Z,9.55
2023-05-03T07:03:50.837Z,9.59
2023-05-03T07:06:19.299Z,9.67
2023-05-03T07:08:47.220Z,9.82
2023-05-03T07:11:15.954Z,9.83
2023-05-03T07:13:43.858Z,9.88
2023-05-03T07:16:12.249Z,10.00
2023-05-03T07:18:40.206Z,10.04
2023-05-03T07:21:09.719Z,10.14
2023-05-03T07:23:37.653Z,10.12
2023-05-03T07:26:05.839Z,10.24
2023-05-03T07:28:35.790Z,10.23
2023-05-03T07:31:04.737Z,10.32
2023-05-03T07:33:37.397Z,10.37
2023-05-03T07:36:06.198Z,10.44
2023-05-03T07:38:35.835Z,10.48
2023-05-03T07:41:03.714Z,10.51
2023-05-03T07:43:31.696Z,10.65
2023-05-03T07:45:59.652Z,10.74
2023-05-03T07:48:27.634Z,10.83
2023-05-03T07:50:55.554Z,10.92
2023-05-03T07:53:23.349Z,10.96
2023-05-03T07:55:56.673Z,11.09
2023-05-03T07:58:38.749Z,11.09
2023-05-03T08:01:08.197Z,11.19
2023-05-03T08:03:36.110Z,11.11
2023-05-03T08:06:04.321Z,11.16
2023-05-03T08:08:32.367Z,11.33
2023-05-03T08:11:01.692Z,11.57
2023-05-03T08:13:29.493Z,11.68
2023-05-03T08:15:57.736Z,11.63
2023-05-03T08:18:25.776Z,11.61
2023-05-03T08:20:53.816Z,11.71
2023-05-03T08:23:22.301Z,11.83
2023-05-03T08:25:50.130Z,11.83
2023-05-03T08:28:19.412Z,11.86
2023-05-03T08:30:47.265Z,11.85
2023-05-03T08:33:15.194Z,12.05
2023-05-03T08:35:43.080Z,12.19
2023-05-03T08:38:10.894Z,12.27
2023-05-03T08:40:40.113Z,12.27
2023-05-03T08:43:09.866Z,12.34
2023-05-03T08:45:39.101Z,12.37
2023-05-03T08:48:08.001Z,12.36
2023-05-03T08:50:42.124Z,12.32
2023-05-03T08:53:10.754Z,12.31
2023-05-03T08:55:38.834Z,12.40
2023-05-03T08:58:10.450Z,12.57
2023-05-03T09:00:41.694Z,12.59
2023-05-03T09:03:09.980Z,12.50
2023-05-03T09:05:41.108Z,12.54
2023-05-03T09:08:10.939Z,12.54
2023-05-03T09:10:40.627Z,12.63
2023-05-03T09:13:09.759Z,12.69
2023-05-03T09:15:39.131Z,12.78
2023-05-03T09:18:15.725Z,12.80
2023-05-03T09:20:51.260Z,12.96
2023-05-03T09:23:20.885Z,13.02
2023-05-03T09:25:51.319Z,13.29
2023-05-03T09:28:21.068Z,13.29
2023-05-03T09:30:51.400Z,13.27
2023-05-03T09:33:30.535Z,13.38
2023-05-03T09:35:59.408Z,13.41
2023-05-03T09:38:28.973Z,13.62
2023-05-03T09:40:57.535Z,13.80
2023-05-03T09:43:25.578Z,14.04
2023-05-03T09:46:09.278Z,13.99
2023-05-03T09:48:38.050Z,14.06
2023-05-03T09:51:06.841Z,13.98
2023-05-03T09:53:36.316Z,14.13
2023-05-03T09:56:09.016Z,14.35
2023-05-03T09:58:37.504Z,14.45
2023-05-03T10:01:07.734Z,14.41
2023-05-03T10:03:40.916Z,14.28
2023-05-03T10:06:17.886Z,14.27
2023-05-03T10:08:50.733Z,14.15
2023-05-03T10:11:19.759Z,14.24
2023-05-03T10:13:47.631Z,14.38
2023-05-03T10:16:22.650Z,14.42
2023-05-03T10:18:55.430Z,14.42
2023-05-03T10:21:32.352Z,14.47
2023-05-03T10:24:20.927Z,14.30
2023-05-03T10:26:51.083Z,14.36
2023-05-03T10:29:48.783Z,14.55
2023-05-03T10:32:39.765Z,14.63
2023-05-03T10:35:10.333Z,14.63
2023-05-03T10:37:39.883Z,14.64
2023-05-03T10:40:13.872Z,14.90
2023-05-03T10:42:45.504Z,14.91
2023-05-03T10:45:29.184Z,14.93
2023-05-03T10:48:23.141Z,15.04
2023-05-03T10:50:52.692Z,15.42
2023-05-03T10:53:38.234Z,15.27
2023-05-03T10:56:09.030Z,15.15
2023-05-03T10:58:39.291Z,15.15
2023-05-03T11:01:08.186Z,15.26
2023-05-03T11:03:45.894Z,15.32
2023-05-03T11:06:28.764Z,15.29
2023-05-03T11:08:56.582Z,15.35
2023-05-03T11:11:24.756Z,15.47
2023-05-03T11:13:52.768Z,15.59
2023-05-03T11:16:21.253Z,15.70
2023-05-03T11:18:51.676Z,15.56
2023-05-03T11:21:20.191Z,15.54
2023-05-03T11:23:48.002Z,15.66
2023-05-03T11:26:16.155Z,15.68
2023-05-03T11:28:45.170Z,15.71
2023-05-03T11:31:13.722Z,15.65
2023-05-03T11:33:42.666Z,15.89
2023-05-03T11:36:13.692Z,16.08
2023-05-03T11:38:41.517Z,15.96
2023-05-03T11:41:15.496Z,15.78
2023-05-03T11:43:43.794Z,15.74
2023-05-03T11:46:12.367Z,15.92
2023-05-03T11:48:40.636Z,15.93
2023-05-03T11:51:11.286Z,15.93
2023-05-03T11:53:42.839Z,15.93
2023-05-03T11:56:14.122Z,15.92
2023-05-03T11:58:51.344Z,15.99
2023-05-03T12:01:21.141Z,16.08
2023-05-03T12:03:49.507Z,16.00
2023-05-03T12:06:18.146Z,15.88
2023-05-03T12:08:47.651Z,15.85
2023-05-03T12:11:17.763Z,15.90
2023-05-03T12:13:47.788Z,15.89
2023-05-03T12:16:19.218Z,16.09
2023-05-03T12:18:51.455Z,16.30
2023-05-03T12:23:55.896Z,16.40
2023-05-03T12:26:25.622Z,16.47
2023-05-03T12:28:55.953Z,16.57
2023-05-03T12:31:25.372Z,16.63
2023-05-03T12:34:19.831Z,16.62
2023-05-03T12:36:48.660Z,16.63
2023-05-03T12:39:21.552Z,16.63
2023-05-03T12:44:23.509Z,16.35
2023-05-03T12:46:53.482Z,16.58
2023-05-03T12:49:23.568Z,16.53
2023-05-03T12:52:02.847Z,16.69
2023-05-03T12:54:42.271Z,16.63
2023-05-03T12:57:15.614Z,16.58
2023-05-03T12:59:51.830Z,16.67
2023-05-03T13:03:14.885Z,16.75
2023-05-03T13:05:14.312Z,16.76
2023-05-03T13:07:55.759Z,16.82
2023-05-03T13:10:27.121Z,16.73
2023-05-03T13:12:55.327Z,16.58
2023-05-03T13:15:25.241Z,16.60
2023-05-03T13:17:54.399Z,16.54
2023-05-03T13:20:22.707Z,16.43
2023-05-03T13:22:50.569Z,16.46
2023-05-03T13:25:18.404Z,16.48
2023-05-03T13:27:50.190Z,16.74
2023-05-03T13:30:18.086Z,16.80
2023-05-03T13:32:46.200Z,16.79
2023-05-03T13:35:15.317Z,16.95
2023-05-03T13:37:43.192Z,16.95
2023-05-03T13:40:12.679Z,16.97
2023-05-03T13:42:40.582Z,16.88
2023-05-03T13:45:11.154Z,17.02
2023-05-03T13:50:10.238Z,17.05
2023-05-03T13:52:38.082Z,17.08
2023-05-03T13:55:06.973Z,17.10
2023-05-03T13:57:34.984Z,17.10
2023-05-03T14:00:03.144Z,16.98
2023-05-03T14:02:35.180Z,17.00
2023-05-03T14:05:03.583Z,17.09
2023-05-03T14:07:32.651Z,17.06
2023-05-03T14:10:00.500Z,17.04
2023-05-03T14:12:28.570Z,16.87
2023-05-03T14:14:57.153Z,16.79
2023-05-03T14:17:25.098Z,16.68
2023-05-03T14:19:54.294Z,16.72
2023-05-03T14:22:22.138Z,16.70
2023-05-03T14:24:51.180Z,16.77
2023-05-03T14:27:21.872Z,16.76
2023-05-03T14:29:50.788Z,16.80
2023-05-03T14:32:19.067Z,16.81
2023-05-03T14:34:47.952Z,16.80
2023-05-03T14:37:17.238Z,16.90
2023-05-03T14:39:45.133Z,16.87
2023-05-03T14:42:12.985Z,16.87
2023-05-03T14:44:41.084Z,16.84
2023-05-03T14:47:09.059Z,16.72
2023-05-03T14:49:40.665Z,16.63
2023-05-03T14:52:08.862Z,16.62
2023-05-03T14:54:38.594Z,16.67
2023-05-03T14:57:06.737Z,16.64
2023-05-03T14:59:35.334Z,16.66
2023-05-03T15:02:03.356Z,16.68
2023-05-03T15:04:31.644Z,16.70
2023-05-03T15:07:01.320Z,16.74
2023-05-03T15:09:29.324Z,16.74
2023-05-03T15:11:59.243Z,16.61
2023-05-03T15:14:27.301Z,16.63
2023-05-03T15:16:55.424Z,16.61
2023-05-03T15:19:23.407Z,16.68
2023-05-03T15:21:52.568Z,16.76
2023-05-03T15:24:20.491Z,16.81
2023-05-03T15:26:48.558Z,16.84
2023-05-03T15:29:17.762Z,16.81
2023-05-03T15:31:46.205Z,16.82
2023-05-03T15:34:14.054Z,16.86
2023-05-03T15:36:41.863Z,16.79
2023-05-03T15:39:09.841Z,16.81
2023-05-03T15:41:37.738Z,16.92
2023-05-03T15:44:07.911Z,16.91
2023-05-03T15:46:37.181Z,16.99
2023-05-03T15:49:05.308Z,17.01
2023-05-03T15:51:33.330Z,17.01
2023-05-03T15:54:01.648Z,16.96
2023-05-03T15:56:29.540Z,16.91
2023-05-03T15:58:57.645Z,16.81
2023-05-03T16:01:25.583Z,16.82
2023-05-03T16:03:54.839Z,16.82
2023-05-03T16:06:23.112Z,16.86
2023-05-03T16:08:50.987Z,16.81
2023-05-03T16:11:18.855Z,16.82
2023-05-03T16:13:46.800Z,16.85
2023-05-03T16:16:14.767Z,16.82
2023-05-03T16:18:42.716Z,16.82
2023-05-03T16:21:12.482Z,16.79
2023-05-03T16:23:40.361Z,16.76
2023-05-03T16:26:15.015Z,16.78
2023-05-03T16:28:43.102Z,16.78
2023-05-03T16:31:11.060Z,16.76
2023-05-03T16:33:38.944Z,16.71
2023-05-03T16:36:07.057Z,16.72
2023-05-03T16:38:37.046Z,16.68
2023-05-03T16:41:04.963Z,16.66
2023-05-03T16:43:33.204Z,16.65
2023-05-03T16:46:02.248Z,16.64
2023-05-03T16:48:31.328Z,16.63
2023-05-03T16:50:59.869Z,16.62
2023-05-03T16:53:28.049Z,16.60
2023-05-03T16:55:57.324Z,16.57
2023-05-03T16:58:25.565Z,16.49
2023-05-03T17:00:53.612Z,16.51
2023-05-03T17:03:21.884Z,16.48
2023-05-03T17:05:50.062Z,16.48
2023-05-03T17:08:18.668Z,16.47
2023-05-03T17:10:46.528Z,16.48
2023-05-03T17:13:17.349Z,16.44
2023-05-03T17:15:45.277Z,16.47
2023-05-03T17:18:13.348Z,16.42
2023-05-03T17:20:41.732Z,16.40
2023-05-03T17:23:09.703Z,16.38
2023-05-03T17:25:37.578Z,16.36
2023-05-03T17:28:05.481Z,16.34
2023-05-03T17:30:34.876Z,16.30
2023-05-03T17:33:03.197Z,16.26
2023-05-03T17:35:31.705Z,16.24
2023-05-03T17:38:00.128Z,16.23
2023-05-03T17:40:27.983Z,16.21
2023-05-03T17:42:56.216Z,16.19
2023-05-03T17:45:27.605Z,16.16
2023-05-03T17:47:57.276Z,16.13
2023-05-03T17:50:25.419Z,16.09
2023-05-03T17:52:53.287Z,16.06
2023-05-03T17:55:21.163Z,16.02
2023-05-03T17:57:49.510Z,15.99
2023-05-03T18:00:19.181Z,15.97
2023-05-03T18:02:47.090Z,15.92
2023-05-03T18:05:17.155Z,15.88
2023-05-03T18:07:45.601Z,15.83
2023-05-03T18:10:16.265Z,15.79
2023-05-03T18:12:44.604Z,15.73
2023-05-03T18:15:15.141Z,15.72
2023-05-03T18:17:43.464Z,15.67
2023-05-03T18:20:12.462Z,15.62
2023-05-03T18:22:42.227Z,15.57
2023-05-03T18:25:10.973Z,15.51
2023-05-03T18:27:39.158Z,15.49
2023-05-03T18:30:09.208Z,15.45
2023-05-03T18:32:37.363Z,15.39
2023-05-03T18:35:06.117Z,15.35
2023-05-03T18:37:33.972Z,15.30
2023-05-03T18:40:04.333Z,15.23
2023-05-03T18:42:32.938Z,15.18
2023-05-03T18:45:00.781Z,15.16
2023-05-03T18:47:28.697Z,15.10
2023-05-03T18:49:56.647Z,15.04
2023-05-03T18:52:24.616Z,14.99
2023-05-03T18:54:52.504Z,14.94
2023-05-03T18:57:21.738Z,14.86
2023-05-03T18:59:59.964Z,14.78
2023-05-03T19:02:31.134Z,14.75
2023-05-03T19:05:00.084Z,14.70
2023-05-03T19:07:28.439Z,14.63
2023-05-03T19:09:57.195Z,14.55
2023-05-03T19:12:26.860Z,14.47
2023-05-03T19:14:54.923Z,14.43
2023-05-03T19:17:23.058Z,14.36
2023-05-03T19:19:51.441Z,14.30
2023-05-03T19:22:19.340Z,14.22
2023-05-03T19:24:47.959Z,14.19
2023-05-03T19:27:16.912Z,14.13
2023-05-03T19:29:46.192Z,14.11
2023-05-03T19:32:14.432Z,14.03
2023-05-03T19:34:42.362Z,14.00
2023-05-03T19:37:10.285Z,13.94
2023-05-03T19:39:38.187Z,13.94
2023-05-03T19:42:06.065Z,13.90
2023-05-03T19:44:34.357Z,13.87
2023-05-03T19:47:03.790Z,13.83
2023-05-03T19:49:31.621Z,13.80
2023-05-03T19:51:59.596Z,13.77
2023-05-03T19:54:27.455Z,13.78
2023-05-03T19:56:55.544Z,13.74
2023-05-03T19:59:23.422Z,13.69
2023-05-03T20:01:51.288Z,13.66
2023-05-03T20:04:20.571Z,13.63
2023-05-03T20:06:48.395Z,13.58
2023-05-03T20:09:16.185Z,13.55
2023-05-03T20:11:44.412Z,13.47
2023-05-03T20:14:12.577Z,13.43
2023-05-03T20:16:40.605Z,13.39
2023-05-03T20:19:08.517Z,13.35
2023-05-03T20:21:38.026Z,13.34
2023-05-03T20:24:10.736Z,13.29
2023-05-03T20:26:39.143Z,13.27
2023-05-03T20:29:07.422Z,13.17
2023-05-03T20:31:35.382Z,13.16
2023-05-03T20:34:03.268Z,13.07
2023-05-03T20:36:31.397Z,13.00
2023-05-03T20:39:00.676Z,12.94
2023-05-03T20:41:28.552Z,12.95
2023-05-03T20:43:56.460Z,12.90
2023-05-03T20:46:24.307Z,12.83
2023-05-03T20:48:52.746Z,12.78
2023-05-03T20:51:20.608Z,12.72
2023-05-03T20:53:48.569Z,12.67
2023-05-03T20:56:17.757Z,12.62
2023-05-03T20:58:46.387Z,12.55
2023-05-03T21:01:14.422Z,12.50
2023-05-03T21:03:42.509Z,12.41
2023-05-03T21:06:10.440Z,12.41
2023-05-03T21:08:38.390Z,12.42
2023-05-03T21:11:06.578Z,12.38
2023-05-03T21:13:36.145Z,12.35
2023-05-03T21:16:04.368Z,12.31
2023-05-03T21:18:32.178Z,12.25
2023-05-03T21:20:59.987Z,12.20
2023-05-03T21:23:27.855Z,12.18
2023-05-03T21:25:56.422Z,12.16
2023-05-03T21:28:24.512Z,12.17
2023-05-03T21:30:55.189Z,12.20
2023-05-03T21:33:23.360Z,12.15
2023-05-03T21:35:51.178Z,12.13
2023-05-03T21:38:19.071Z,12.14
2023-05-03T21:40:47.506Z,12.15
2023-05-03T21:43:15.449Z,12.13
2023-05-03T21:45:44.065Z,12.11
2023-05-03T21:48:13.651Z,12.09
2023-05-03T21:50:41.694Z,12.14
2023-05-03T21:53:09.583Z,12.12
2023-05-03T21:55:37.408Z,12.11
2023-05-03T21:58:05.404Z,12.06
2023-05-03T22:00:36.049Z,12.12
2023-05-03T22:03:04.012Z,12.07
2023-05-03T22:05:33.310Z,12.00
2023-05-03T22:08:01.418Z,12.04
2023-05-03T22:10:29.234Z,12.05
2023-05-03T22:12:57.144Z,12.02
2023-05-03T22:15:25.046Z,12.03
2023-05-03T22:17:53.087Z,11.95
2023-05-03T22:20:20.999Z,12.02
2023-05-03T22:22:50.832Z,11.96
2023-05-03T22:25:25.772Z,12.00
2023-05-03T22:27:53.867Z,11.98
2023-05-03T22:30:23.102Z,11.93
2023-05-03T22:32:50.914Z,11.91
2023-05-03T22:35:19.063Z,11.88
2023-05-03T22:37:46.917Z,11.87
2023-05-03T22:40:16.380Z,11.82
2023-05-03T22:42:44.276Z,11.83
2023-05-03T22:45:12.480Z,11.82
2023-05-03T22:47:40.369Z,11.79
2023-05-03T22:50:10.344Z,11.75
2023-05-03T22:52:38.198Z,11.73
2023-05-03T22:55:07.368Z,11.73
2023-05-03T22:57:36.638Z,11.74
2023-05-03T23:00:05.284Z,11.65
2023-05-03T23:02:33.767Z,11.62
2023-05-03T23:05:01.731Z,11.63
2023-05-03T23:07:29.650Z,11.64
2023-05-03T23:10:02.338Z,11.61
2023-05-03T23:12:30.638Z,11.60
2023-05-03T23:14:59.828Z,11.56
2023-05-03T23:17:27.799Z,11.56
2023-05-03T23:19:55.668Z,11.54
2023-05-03T23:22:23.537Z,11.54
2023-05-03T23:24:51.463Z,11.54
2023-05-03T23:27:19.304Z,11.52
2023-05-03T23:29:48.189Z,11.47
2023-05-03T23:32:17.955Z,11.54
2023-05-03T23:34:46.279Z,11.48
2023-05-03T23:37:14.153Z,11.41
2023-05-03T23:39:45.218Z,11.40
2023-05-03T23:42:13.553Z,11.38
2023-05-03T23:44:53.099Z,11.29
2023-05-03T23:47:23.581Z,11.32
2023-05-03T23:49:52.042Z,11.35
2023-05-03T23:52:20.493Z,11.30
2023-05-03T23:54:48.458Z,11.30
2023-05-03T23:57:16.338Z,11.30
2023-05-03T23:59:44.187Z,11.29
